Time;durP1;ratioP1;P1;durP2;ratioP2;P2;SDS_P1;SDS_P2;PMS_P1;PMS_P2;Temp;Humidity;BMP_temperature;BMP_pressure;BME280_temperature;BME280_humidity;BME280_pressure;Samples;Min_cycle;Max_cycle;Signal;HPM_P1;HPM_P2
2022/06/02 00:00:24;;;;;;;3.50;3.20;;;;;;;;;;5010662;28;20094;-75
2022/06/02 00:02:53;;;;;;;3.53;3.22;;;;;;;;;;5012777;28;20423;-75
2022/06/02 00:05:34;;;;;;;4.28;3.20;;;;;;;;;;5007954;28;20037;-76
2022/06/02 00:08:00;;;;;;;3.80;3.40;;;;;;;;;;5000107;28;20038;-76
2022/06/02 00:10:34;;;;;;;4.10;3.70;;;;;;;;;;5001255;28;20027;-76
2022/06/02 00:13:06;;;;;;;3.83;3.42;;;;;;;;;;5001287;28;20022;-75
2022/06/02 00:15:36;;;;;;;4.78;3.28;;;;;;;;;;5006975;28;20030;-76
2022/06/02 00:18:09;;;;;;;5.03;3.70;;;;;;;;;;4997357;28;20015;-76
2022/06/02 00:20:44;;;;;;;4.15;3.50;;;;;;;;;;5009348;28;20018;-76
2022/06/02 00:23:33;;;;;;;4.13;3.70;;;;;;;;;;5010939;28;20266;-75
2022/06/02 00:26:17;;;;;;;4.25;3.75;;;;;;;;;;5004532;28;20034;-76
2022/06/02 00:28:59;;;;;;;3.38;3.08;;;;;;;;;;5013238;28;20037;-76
2022/06/02 00:31:47;;;;;;;3.90;3.10;;;;;;;;;;5009293;28;20124;-76
2022/06/02 00:34:17;;;;;;;3.95;3.55;;;;;;;;;;5011661;28;20037;-76
2022/06/02 00:37:02;;;;;;;3.30;2.85;;;;;;;;;;5021631;28;20057;-76
2022/06/02 00:39:30;;;;;;;8.52;3.30;;;;;;;;;;5008478;28;20038;-76
2022/06/02 00:42:05;;;;;;;5.47;3.92;;;;;;;;;;5018389;28;20038;-76
2022/06/02 00:44:37;;;;;;;4.82;3.70;;;;;;;;;;5003931;28;20554;-76
2022/06/02 00:47:05;;;;;;;3.60;3.30;;;;;;;;;;5009462;28;20129;-76
2022/06/02 00:49:43;;;;;;;3.97;3.58;;;;;;;;;;5013963;28;20034;-75
2022/06/02 00:52:19;;;;;;;3.30;3.00;;;;;;;;;;5009572;28;20057;-76
2022/06/02 00:57:57;;;;;;;10.55;3.67;;;;;;;;;;5000691;28;20038;-75
2022/06/02 01:00:46;;;;;;;4.28;3.38;;;;;;;;;;5009650;28;20033;-75
2022/06/02 01:03:15;;;;;;;3.78;3.45;;;;;;;;;;5006433;28;20076;-75
2022/06/02 01:06:00;;;;;;;4.90;3.30;;;;;;;;;;5010159;28;20022;-75
2022/06/02 01:08:26;;;;;;;3.67;3.30;;;;;;;;;;5005941;28;20022;-75
2022/06/02 01:11:10;;;;;;;4.90;3.53;;;;;;;;;;5013966;28;20060;-75
2022/06/02 01:13:50;;;;;;;3.50;3.20;;;;;;;;;;5006367;28;20022;-75
2022/06/02 01:16:21;;;;;;;3.85;3.00;;;;;;;;;;5017634;28;20022;-75
2022/06/02 01:19:03;;;;;;;4.20;3.20;;;;;;;;;;5014215;28;20071;-75
2022/06/02 01:21:29;;;;;;;3.38;3.08;;;;;;;;;;5008987;28;20049;-76
2022/06/02 01:23:55;;;;;;;4.32;3.38;;;;;;;;;;5009363;28;20029;-75
2022/06/02 01:26:42;;;;;;;5.50;3.72;;;;;;;;;;5012605;28;20089;-75
2022/06/02 01:29:27;;;;;;;4.40;3.83;;;;;;;;;;5012045;28;20060;-75
2022/06/02 01:32:00;;;;;;;4.65;3.25;;;;;;;;;;5010862;28;20038;-76
2022/06/02 01:34:39;;;;;;;3.88;3.17;;;;;;;;;;5010518;28;20080;-76
2022/06/02 01:37:11;;;;;;;4.15;3.75;;;;;;;;;;5017610;28;20048;-74
2022/06/02 01:39:56;;;;;;;4.15;3.67;;;;;;;;;;5015468;28;20064;-76
2022/06/02 01:42:31;;;;;;;3.92;3.50;;;;;;;;;;5008876;28;20558;-76
2022/06/02 01:45:13;;;;;;;4.40;3.70;;;;;;;;;;5025742;28;20072;-75
2022/06/02 01:47:42;;;;;;;4.78;3.08;;;;;;;;;;5023604;28;20037;-75
2022/06/02 01:50:17;;;;;;;5.05;3.58;;;;;;;;;;5018054;28;20029;-76
2022/06/02 01:53:01;;;;;;;4.78;3.33;;;;;;;;;;5014602;28;20235;-75
2022/06/02 01:55:46;;;;;;;5.10;3.60;;;;;;;;;;5012213;28;20028;-76
2022/06/02 01:58:12;;;;;;;4.97;4.03;;;;;;;;;;5002213;28;20101;-75
2022/06/02 02:00:39;;;;;;;3.80;3.30;;;;;;;;;;5009707;28;20061;-76
2022/06/02 02:03:24;;;;;;;4.90;3.55;;;;;;;;;;4995803;28;20030;-76
2022/06/02 02:05:58;;;;;;;4.75;3.00;;;;;;;;;;5003973;28;20018;-76
2022/06/02 02:08:30;;;;;;;3.53;3.20;;;;;;;;;;5010307;28;20058;-75
2022/06/02 02:11:02;;;;;;;4.43;4.03;;;;;;;;;;5010688;28;20542;-75
2022/06/02 02:13:47;;;;;;;3.95;3.58;;;;;;;;;;5007774;28;20026;-76
2022/06/02 02:16:13;;;;;;;4.82;3.53;;;;;;;;;;5012282;28;20026;-75
2022/06/02 02:18:54;;;;;;;4.47;4.07;;;;;;;;;;5009346;28;20030;-75
2022/06/02 02:21:29;;;;;;;3.67;3.22;;;;;;;;;;5001874;28;20029;-76
2022/06/02 02:24:14;;;;;;;4.03;3.38;;;;;;;;;;5000623;28;20109;-76
2022/06/02 02:27:00;;;;;;;4.78;3.65;;;;;;;;;;5008317;28;20362;-76
2022/06/02 02:29:27;;;;;;;4.53;3.50;;;;;;;;;;5001724;28;20121;-76
2022/06/02 02:32:12;;;;;;;5.32;3.50;;;;;;;;;;5005975;28;20362;-76
2022/06/02 02:35:02;;;;;;;6.38;4.07;;;;;;;;;;5009340;28;20038;-75
2022/06/02 02:37:31;;;;;;;4.00;3.60;;;;;;;;;;5014201;28;20046;-76
2022/06/02 02:40:22;;;;;;;3.97;3.28;;;;;;;;;;5011629;28;20025;-76
2022/06/02 02:42:58;;;;;;;5.80;3.42;;;;;;;;;;5013919;28;20034;-75
2022/06/02 02:45:33;;;;;;;4.47;3.60;;;;;;;;;;5008913;28;20432;-76
2022/06/02 02:48:08;;;;;;;4.57;3.45;;;;;;;;;;5006420;28;20034;-74
2022/06/02 02:50:38;;;;;;;5.00;3.47;;;;;;;;;;5009368;28;20069;-76
2022/06/02 02:53:10;;;;;;;4.53;3.40;;;;;;;;;;5009508;28;20164;-76
2022/06/02 02:55:48;;;;;;;5.25;3.25;;;;;;;;;;5011537;28;20676;-75
2022/06/02 02:58:33;;;;;;;4.32;3.50;;;;;;;;;;5012164;28;20026;-76
2022/06/02 03:01:07;;;;;;;5.00;3.67;;;;;;;;;;5006637;28;20033;-76
2022/06/02 03:03:36;;;;;;;4.68;3.78;;;;;;;;;;5015648;28;20101;-74
2022/06/02 03:06:12;;;;;;;5.90;3.38;;;;;;;;;;5012742;28;20044;-74
2022/06/02 03:08:47;;;;;;;5.13;3.53;;;;;;;;;;5021638;28;20040;-74
2022/06/02 03:11:29;;;;;;;3.92;3.20;;;;;;;;;;5010279;28;20420;-74
2022/06/02 03:14:10;;;;;;;9.27;3.25;;;;;;;;;;5003778;28;20022;-75
2022/06/02 03:16:38;;;;;;;5.10;3.90;;;;;;;;;;5007426;28;20502;-75
2022/06/02 03:19:37;;;;;;;3.88;3.47;;;;;;;;;;5010514;28;20034;-76
2022/06/02 03:22:15;;;;;;;5.20;3.30;;;;;;;;;;4979998;28;20029;-75
2022/06/02 03:24:50;;;;;;;4.53;3.70;;;;;;;;;;5008255;28;20079;-75
2022/06/02 03:27:16;;;;;;;4.20;3.80;;;;;;;;;;5014579;28;20429;-75
2022/06/02 03:30:05;;;;;;;3.83;3.42;;;;;;;;;;5006864;28;20037;-75
2022/06/02 03:32:32;;;;;;;4.93;3.30;;;;;;;;;;5001414;28;20030;-73
2022/06/02 03:35:00;;;;;;;3.92;3.38;;;;;;;;;;4999772;28;20036;-74
2022/06/02 03:37:26;;;;;;;4.05;3.50;;;;;;;;;;4993878;28;20057;-75
2022/06/02 03:39:53;;;;;;;4.47;4.07;;;;;;;;;;5008461;28;20050;-74
2022/06/02 03:42:31;;;;;;;7.13;3.72;;;;;;;;;;5016155;28;20496;-76
2022/06/02 03:45:16;;;;;;;5.22;3.75;;;;;;;;;;5015866;28;20487;-75
2022/06/02 03:47:49;;;;;;;4.10;3.58;;;;;;;;;;5008998;28;20033;-76
2022/06/02 03:50:29;;;;;;;4.38;3.70;;;;;;;;;;5006696;28;20064;-75
2022/06/02 03:53:14;;;;;;;7.20;3.65;;;;;;;;;;5004658;28;20104;-76
2022/06/02 03:55:59;;;;;;;4.93;3.72;;;;;;;;;;5021777;28;20037;-76
2022/06/02 03:58:44;;;;;;;4.68;4.05;;;;;;;;;;5003426;28;20046;-75
2022/06/02 04:01:12;;;;;;;5.50;3.30;;;;;;;;;;5001878;28;20037;-76
2022/06/02 04:03:47;;;;;;;6.07;3.60;;;;;;;;;;5020505;28;20033;-75
2022/06/02 04:06:13;;;;;;;;;;;;;;;;;;5010716;28;20022;-76
2022/06/02 04:08:39;;;;;;;;;;;;;;;;;;5014954;28;19957;-75
2022/06/02 04:11:05;;;;;;;;;;;;;;;;;;5015746;28;19918;-76
2022/06/02 04:13:37;;;;;;;;;;;;;;;;;;5013108;28;19936;-75
2022/06/02 04:16:28;;;;;;;3.85;3.45;;;;;;;;;;5015268;28;19909;-74
2022/06/02 04:18:57;;;;;;;4.75;3.80;;;;;;;;;;5022354;28;20268;-75
2022/06/02 04:21:36;;;;;;;4.95;4.00;;;;;;;;;;4999636;28;20072;-76
2022/06/02 04:24:02;;;;;;;4.65;3.58;;;;;;;;;;5010865;28;20029;-77
2022/06/02 04:26:32;;;;;;;4.30;3.33;;;;;;;;;;5007758;28;20126;-75
2022/06/02 04:29:11;;;;;;;4.47;3.55;;;;;;;;;;5007799;28;20549;-76
2022/06/02 04:31:56;;;;;;;6.95;4.40;;;;;;;;;;5012709;28;20515;-74
2022/06/02 04:34:36;;;;;;;5.25;4.05;;;;;;;;;;5010775;28;20034;-75
2022/06/02 04:37:05;;;;;;;4.63;3.53;;;;;;;;;;5005039;28;20161;-75
2022/06/02 04:39:40;;;;;;;3.78;3.30;;;;;;;;;;5009959;28;20058;-75
2022/06/02 04:42:25;;;;;;;5.15;3.88;;;;;;;;;;5006840;28;20069;-75
2022/06/02 04:45:00;;;;;;;3.92;3.45;;;;;;;;;;5014438;28;20056;-74
2022/06/02 04:47:32;;;;;;;4.68;3.63;;;;;;;;;;5011587;28;20033;-76
2022/06/02 04:50:07;;;;;;;4.40;3.10;;;;;;;;;;5015066;28;20118;-73
2022/06/02 04:52:52;;;;;;;4.30;3.60;;;;;;;;;;5014138;28;20033;-76
2022/06/02 04:55:32;;;;;;;4.60;3.80;;;;;;;;;;5014154;28;20384;-75
2022/06/02 04:58:10;;;;;;;5.97;4.75;;;;;;;;;;5010185;28;20539;-75
2022/06/02 05:00:42;;;;;;;4.85;3.40;;;;;;;;;;5010169;28;20034;-75
2022/06/02 05:03:13;;;;;;;3.80;3.28;;;;;;;;;;5008252;28;20504;-75
2022/06/02 05:05:48;;;;;;;4.13;3.47;;;;;;;;;;5005531;28;20113;-75
2022/06/02 05:08:26;;;;;;;6.05;3.58;;;;;;;;;;5010920;28;20097;-76
2022/06/02 05:10:57;;;;;;;4.18;3.50;;;;;;;;;;5011955;28;20125;-75
2022/06/02 05:13:29;;;;;;;4.28;3.55;;;;;;;;;;5007933;28;20095;-76
2022/06/02 05:16:11;;;;;;;3.58;2.92;;;;;;;;;;5006528;28;20060;-75
2022/06/02 05:18:37;;;;;;;3.92;3.30;;;;;;;;;;5006365;28;20101;-75
2022/06/02 05:21:22;;;;;;;3.60;3.30;;;;;;;;;;5007857;28;20034;-74
2022/06/02 05:23:51;;;;;;;4.45;3.42;;;;;;;;;;5015162;28;20037;-74
2022/06/02 05:26:20;;;;;;;5.50;3.95;;;;;;;;;;5018183;28;20100;-75
2022/06/02 05:28:49;;;;;;;3.33;2.92;;;;;;;;;;5014110;28;20087;-75
2022/06/02 05:31:18;;;;;;;3.88;3.30;;;;;;;;;;5021578;28;20125;-74
2022/06/02 05:33:59;;;;;;;6.20;3.38;;;;;;;;;;5010803;28;20148;-74
2022/06/02 05:36:33;;;;;;;3.40;2.95;;;;;;;;;;5009947;28;20492;-75
2022/06/02 05:39:17;;;;;;;3.47;2.90;;;;;;;;;;5012294;28;20449;-75
2022/06/02 05:41:50;;;;;;;3.45;3.15;;;;;;;;;;5008952;28;20025;-76
2022/06/02 05:44:16;;;;;;;4.00;3.45;;;;;;;;;;5008851;28;20044;-74
2022/06/02 05:47:04;;;;;;;3.97;3.30;;;;;;;;;;5011384;28;20049;-74
2022/06/02 05:49:40;;;;;;;4.10;3.35;;;;;;;;;;5009903;28;20092;-76
2022/06/02 05:52:16;;;;;;;5.05;3.00;;;;;;;;;;5008958;28;20054;-75
2022/06/02 05:54:55;;;;;;;4.47;4.03;;;;;;;;;;5007389;28;20032;-75
2022/06/02 05:57:26;;;;;;;4.00;3.10;;;;;;;;;;5011446;28;20223;-74
2022/06/02 06:00:00;;;;;;;3.85;3.08;;;;;;;;;;5006076;28;20030;-75
2022/06/02 06:02:45;;;;;;;4.97;3.40;;;;;;;;;;5002117;28;20060;-75
2022/06/02 06:05:14;;;;;;;5.80;3.37;;;;;;;;;;5008283;28;20037;-75
2022/06/02 06:07:49;;;;;;;4.47;3.17;;;;;;;;;;5007629;28;20816;-76
2022/06/02 06:10:15;;;;;;;;;;;;;;;;;;5012328;28;20052;-75
2022/06/02 06:13:04;;;;;;;4.53;3.22;;;;;;;;;;5007835;28;20414;-76
2022/06/02 06:15:33;;;;;;;4.13;2.88;;;;;;;;;;4978956;28;20031;-74
2022/06/02 06:18:13;;;;;;;4.85;2.97;;;;;;;;;;5007378;28;20056;-75
2022/06/02 06:20:54;;;;;;;3.83;3.05;;;;;;;;;;4998551;28;20164;-74
2022/06/02 06:23:29;;;;;;;6.53;3.00;;;;;;;;;;5002045;28;20044;-73
2022/06/02 06:26:15;;;;;;;4.32;2.92;;;;;;;;;;5004664;28;20018;-75
2022/06/02 06:28:48;;;;;;;3.25;2.90;;;;;;;;;;5004906;28;20023;-76
2022/06/02 06:31:15;;;;;;;3.47;2.88;;;;;;;;;;4998886;28;20090;-75
2022/06/02 06:33:44;;;;;;;3.95;2.90;;;;;;;;;;5003204;28;20107;-75
2022/06/02 06:36:32;;;;;;;3.22;2.92;;;;;;;;;;5005843;28;20023;-74
2022/06/02 06:39:01;;;;;;;3.47;2.92;;;;;;;;;;5004213;28;20112;-75
2022/06/02 06:41:34;;;;;;;3.40;2.88;;;;;;;;;;4999699;28;20030;-75
2022/06/02 06:44:15;;;;;;;3.42;2.88;;;;;;;;;;5003304;28;20476;-75
2022/06/02 06:47:02;;;;;;;2.90;2.60;;;;;;;;;;5008404;28;20531;-75
2022/06/02 06:49:50;;;;;;;3.88;2.90;;;;;;;;;;5004538;28;20137;-74
2022/06/02 06:52:33;;;;;;;2.88;2.38;;;;;;;;;;5009393;28;20038;-74
2022/06/02 06:55:28;;;;;;;3.05;2.72;;;;;;;;;;4998010;28;20022;-74
2022/06/02 06:58:12;;;;;;;2.90;2.60;;;;;;;;;;4985462;28;20125;-75
2022/06/02 07:00:38;;;;;;;4.10;3.35;;;;;;;;;;5004261;28;20037;-75
2022/06/02 07:03:11;;;;;;;3.50;3.10;;;;;;;;;;5005969;28;20053;-75
2022/06/02 07:05:42;;;;;;;4.20;2.88;;;;;;;;;;5008863;28;20029;-75
2022/06/02 07:08:24;;;;;;;5.07;2.90;;;;;;;;;;5019247;28;20033;-74
2022/06/02 07:12:50;;;;;;;3.72;3.25;;;;;;;;;;5005571;28;20105;-75
2022/06/02 07:13:58;;;;;;;3.40;3.10;;;;;;;;;;5007021;28;20785;-76
2022/06/02 07:16:43;;;;;;;3.17;2.88;;;;;;;;;;5020387;28;20029;-75
2022/06/02 07:19:12;;;;;;;3.20;2.90;;;;;;;;;;5016643;28;20196;-75
2022/06/02 07:21:43;;;;;;;4.10;3.00;;;;;;;;;;4996167;28;20030;-75
2022/06/02 07:24:18;;;;;;;3.05;2.70;;;;;;;;;;4997336;28;20026;-75
2022/06/02 07:26:47;;;;;;;3.67;2.75;;;;;;;;;;5002765;28;20034;-75
2022/06/02 07:29:20;;;;;;;4.25;3.10;;;;;;;;;;5007227;28;20044;-75
2022/06/02 07:32:05;;;;;;;3.50;2.97;;;;;;;;;;5012082;28;20057;-74
2022/06/02 07:34:38;;;;;;;3.87;2.77;;;;;;;;;;5011017;28;20022;-75
2022/06/02 07:37:06;;;;;;;4.80;2.85;;;;;;;;;;5010470;28;20730;-75
2022/06/02 07:39:38;;;;;;;3.80;2.80;;;;;;;;;;5010349;28;20037;-75
2022/06/02 07:42:16;;;;;;;4.25;2.47;;;;;;;;;;5032669;28;20160;-76
2022/06/02 07:44:43;;;;;;;3.10;2.80;;;;;;;;;;5027862;28;20049;-74
2022/06/02 07:47:09;;;;;;;2.85;2.28;;;;;;;;;;5021267;28;20010;-76
2022/06/02 07:49:47;;;;;;;2.78;2.20;;;;;;;;;;5023254;28;20053;-74
2022/06/02 07:52:21;;;;;;;3.10;2.70;;;;;;;;;;5013858;28;20109;-75
2022/06/02 07:55:05;;;;;;;2.67;2.28;;;;;;;;;;5015328;28;20022;-75
2022/06/02 07:57:40;;;;;;;2.30;2.10;;;;;;;;;;5021737;28;20450;-76
2022/06/02 08:00:22;;;;;;;2.35;2.15;;;;;;;;;;5018829;28;20280;-77
2022/06/02 08:02:55;;;;;;;2.40;2.20;;;;;;;;;;5016588;28;20048;-73
2022/06/02 08:05:24;;;;;;;3.00;2.60;;;;;;;;;;5019978;28;20205;-75
2022/06/02 08:07:59;;;;;;;2.88;1.92;;;;;;;;;;5016219;28;20030;-76
2022/06/02 08:10:34;;;;;;;3.13;2.13;;;;;;;;;;5022852;28;20026;-76
2022/06/02 08:13:00;;;;;;;;;;;;;;;;;;5018179;28;20413;-75
2022/06/02 08:15:35;;;;;;;2.42;2.15;;;;;;;;;;5022308;28;19972;-76
2022/06/02 08:18:01;;;;;;;;;;;;;;;;;;5033945;28;20026;-76
2022/06/02 08:20:47;;;;;;;2.25;1.80;;;;;;;;;;5012015;28;20017;-76
2022/06/02 08:23:13;;;;;;;;;;;;;;;;;;5017355;28;20022;-76
2022/06/02 08:25:42;;;;;;;2.47;2.22;;;;;;;;;;5017078;28;19933;-76
2022/06/02 08:28:26;;;;;;;2.60;2.15;;;;;;;;;;5023540;28;20022;-75
2022/06/02 08:30:58;;;;;;;5.15;2.45;;;;;;;;;;5022839;28;20034;-76
2022/06/02 08:33:49;;;;;;;3.97;2.20;;;;;;;;;;5017487;28;20087;-75
2022/06/02 08:36:17;;;;;;;2.60;2.17;;;;;;;;;;5023712;28;20033;-73
2022/06/02 08:38:43;;;;;;;2.70;2.50;;;;;;;;;;5016333;28;20034;-75
2022/06/02 08:41:28;;;;;;;2.83;2.30;;;;;;;;;;5013655;28;20022;-75
2022/06/02 08:43:59;;;;;;;2.45;2.15;;;;;;;;;;5013123;28;20255;-74
2022/06/02 08:46:29;;;;;;;2.80;2.10;;;;;;;;;;5016200;28;20073;-76
2022/06/02 08:49:13;;;;;;;2.10;1.90;;;;;;;;;;5013737;28;20030;-76
2022/06/02 08:51:58;;;;;;;2.78;2.00;;;;;;;;;;5021403;28;20060;-76
2022/06/02 08:54:24;;;;;;;1.83;1.73;;;;;;;;;;5028007;28;20029;-76
2022/06/02 08:57:15;;;;;;;2.63;1.92;;;;;;;;;;5016455;28;20034;-76
2022/06/02 09:00:00;;;;;;;1.98;1.77;;;;;;;;;;5017512;28;20489;-75
2022/06/02 09:02:26;;;;;;;3.10;1.90;;;;;;;;;;5026783;28;20052;-76
2022/06/02 09:05:11;;;;;;;1.90;1.80;;;;;;;;;;5019094;28;20034;-75
2022/06/02 09:07:38;;;;;;;2.03;1.87;;;;;;;;;;5012444;28;20467;-75
2022/06/02 09:10:16;;;;;;;2.20;2.00;;;;;;;;;;5019129;28;20293;-76
2022/06/02 09:13:01;;;;;;;2.08;1.88;;;;;;;;;;5004645;28;20097;-76
2022/06/02 09:15:50;;;;;;;1.77;1.67;;;;;;;;;;5023571;28;20665;-75
2022/06/02 09:18:24;;;;;;;2.13;1.77;;;;;;;;;;5019116;28;20018;-76
2022/06/02 09:21:05;;;;;;;1.85;1.75;;;;;;;;;;5025643;28;20132;-76
2022/06/02 09:23:49;;;;;;;2.05;1.80;;;;;;;;;;5021434;28;20026;-73
2022/06/02 09:26:24;;;;;;;2.72;2.10;;;;;;;;;;5012604;28;20500;-74
2022/06/02 09:28:50;;;;;;;;;;;;;;;;;;5019239;28;20030;-75
2022/06/02 09:31:20;;;;;;;3.50;2.20;;;;;;;;;;5019936;28;19917;-76
2022/06/02 09:33:52;;;;;;;2.72;2.33;;;;;;;;;;5012749;28;20113;-76
2022/06/02 09:36:38;;;;;;;2.63;2.17;;;;;;;;;;5013471;28;20036;-76
2022/06/02 09:39:33;;;;;;;2.10;1.90;;;;;;;;;;5016192;28;20518;-75
2022/06/02 09:42:02;;;;;;;2.08;1.88;;;;;;;;;;4975609;28;20050;-75
2022/06/02 09:44:34;;;;;;;1.92;1.60;;;;;;;;;;5017852;28;20061;-76
2022/06/02 09:47:00;;;;;;;2.00;1.80;;;;;;;;;;5018969;28;20053;-76
2022/06/02 09:49:26;;;;;;;2.10;1.90;;;;;;;;;;5019622;28;20034;-74
2022/06/02 09:52:03;;;;;;;2.17;1.98;;;;;;;;;;5017136;28;20548;-74
2022/06/02 09:54:53;;;;;;;2.10;1.90;;;;;;;;;;5018603;28;20511;-75
2022/06/02 10:00:19;;;;;;;2.60;1.90;;;;;;;;;;5014045;28;20046;-76
2022/06/02 10:02:51;;;;;;;1.80;1.70;;;;;;;;;;5017618;28;20017;-74
2022/06/02 10:05:20;;;;;;;2.72;1.70;;;;;;;;;;5015798;28;20077;-74
2022/06/02 10:07:52;;;;;;;1.73;1.60;;;;;;;;;;5020845;28;20503;-76
2022/06/02 10:10:39;;;;;;;1.75;1.65;;;;;;;;;;5015341;28;20056;-74
2022/06/02 10:13:24;;;;;;;1.90;1.67;;;;;;;;;;5015418;28;20022;-76
2022/06/02 10:15:58;;;;;;;1.70;1.60;;;;;;;;;;5016743;28;20026;-75
2022/06/02 10:18:37;;;;;;;1.90;1.80;;;;;;;;;;5015802;28;20026;-76
2022/06/02 10:21:06;;;;;;;1.70;1.60;;;;;;;;;;5016605;28;20093;-76
2022/06/02 10:23:44;;;;;;;2.08;1.88;;;;;;;;;;5006662;28;20085;-76
2022/06/02 10:26:31;;;;;;;1.92;1.70;;;;;;;;;;5013108;28;20032;-75
2022/06/02 10:29:01;;;;;;;1.60;1.50;;;;;;;;;;5011019;28;20021;-76
2022/06/02 10:31:45;;;;;;;2.58;1.70;;;;;;;;;;5017498;28;20651;-76
2022/06/02 10:34:29;;;;;;;2.55;1.90;;;;;;;;;;5009130;28;20045;-75
2022/06/02 10:37:19;;;;;;;2.20;1.77;;;;;;;;;;5005949;28;20359;-76
2022/06/02 10:39:45;;;;;;;1.98;1.80;;;;;;;;;;5012068;28;20284;-76
2022/06/02 10:42:20;;;;;;;1.70;1.60;;;;;;;;;;5011548;28;20022;-75
2022/06/02 10:45:05;;;;;;;2.10;1.67;;;;;;;;;;5020341;28;20122;-76
2022/06/02 10:47:57;;;;;;;2.25;1.80;;;;;;;;;;5004539;28;20042;-77
2022/06/02 10:50:26;;;;;;;1.90;1.70;;;;;;;;;;5009041;28;20476;-76
2022/06/02 10:53:11;;;;;;;2.10;1.90;;;;;;;;;;5004763;28;20029;-75
2022/06/02 10:55:55;;;;;;;2.25;1.70;;;;;;;;;;5011149;28;20026;-76
2022/06/02 10:58:40;;;;;;;1.60;1.50;;;;;;;;;;5007579;28;20649;-76
2022/06/02 11:01:25;;;;;;;1.98;1.77;;;;;;;;;;5018368;28;20300;-76
2022/06/02 11:04:04;;;;;;;1.98;1.80;;;;;;;;;;5013936;28;20064;-74
2022/06/02 11:06:36;;;;;;;1.95;1.77;;;;;;;;;;5015222;28;20032;-76
2022/06/02 11:09:14;;;;;;;2.88;2.25;;;;;;;;;;5021116;28;20061;-75
2022/06/02 11:12:03;;;;;;;4.07;1.90;;;;;;;;;;5015907;28;20037;-75
2022/06/02 11:14:29;;;;;;;1.95;1.77;;;;;;;;;;5012332;28;20033;-75
2022/06/02 11:17:14;;;;;;;2.42;1.70;;;;;;;;;;5016839;28;20272;-76
2022/06/02 11:20:15;;;;;;;2.45;2.25;;;;;;;;;;5014651;28;20060;-75
2022/06/02 11:22:53;;;;;;;2.13;1.80;;;;;;;;;;4997017;28;20041;-75
2022/06/02 11:25:38;;;;;;;2.28;1.85;;;;;;;;;;5015967;28;20032;-74
2022/06/02 11:28:04;;;;;;;1.80;1.70;;;;;;;;;;5016359;28;20025;-75
2022/06/02 11:30:31;;;;;;;2.10;1.90;;;;;;;;;;5019476;28;20069;-74
2022/06/02 11:33:13;;;;;;;1.90;1.80;;;;;;;;;;5020967;28;20384;-77
2022/06/02 11:35:51;;;;;;;1.67;1.58;;;;;;;;;;5017231;28;20422;-74
2022/06/02 11:38:17;;;;;;;1.90;1.70;;;;;;;;;;5009419;28;20155;-74
2022/06/02 11:40:43;;;;;;;2.35;2.13;;;;;;;;;;5018756;28;20029;-74
2022/06/02 11:43:20;;;;;;;1.63;1.52;;;;;;;;;;5014687;28;20034;-74
2022/06/02 11:45:46;;;;;;;3.40;1.80;;;;;;;;;;5028702;28;20033;-73
2022/06/02 11:48:27;;;;;;;1.73;1.60;;;;;;;;;;5022655;28;20048;-74
2022/06/02 11:51:09;;;;;;;1.75;1.60;;;;;;;;;;5016472;28;20025;-74
2022/06/02 11:53:45;;;;;;;1.70;1.60;;;;;;;;;;5009913;28;20033;-73
2022/06/02 11:56:15;;;;;;;1.70;1.60;;;;;;;;;;5013760;28;20026;-74
2022/06/02 11:58:49;;;;;;;1.67;1.58;;;;;;;;;;5025631;28;20021;-73
2022/06/02 12:01:34;;;;;;;1.83;1.52;;;;;;;;;;5028268;28;20093;-75
2022/06/02 12:04:00;;;;;;;2.35;1.90;;;;;;;;;;5025720;28;20041;-75
2022/06/02 12:06:36;;;;;;;3.58;1.77;;;;;;;;;;5026022;28;20033;-75
2022/06/02 12:09:21;;;;;;;2.00;1.80;;;;;;;;;;5019427;28;20076;-74
2022/06/02 12:12:02;;;;;;;1.92;1.77;;;;;;;;;;5018049;28;20086;-75
2022/06/02 12:14:28;;;;;;;2.17;1.80;;;;;;;;;;5012043;28;20329;-76
2022/06/02 12:17:13;;;;;;;4.05;1.67;;;;;;;;;;5017162;28;20033;-74
2022/06/02 12:19:42;;;;;;;5.43;1.95;;;;;;;;;;5015205;28;20104;-75
2022/06/02 12:22:17;;;;;;;1.67;1.58;;;;;;;;;;5017852;28;20029;-75
2022/06/02 12:24:52;;;;;;;1.90;1.65;;;;;;;;;;5022066;28;20500;-75
2022/06/02 12:27:37;;;;;;;1.87;1.70;;;;;;;;;;5003370;28;20041;-76
2022/06/02 12:30:08;;;;;;;1.70;1.60;;;;;;;;;;5013111;28;20292;-74
2022/06/02 12:32:40;;;;;;;1.90;1.80;;;;;;;;;;5016809;28;20088;-75
2022/06/02 12:35:25;;;;;;;1.92;1.83;;;;;;;;;;5015374;28;20060;-75
2022/06/02 12:38:20;;;;;;;1.73;1.50;;;;;;;;;;5011587;28;20049;-74
2022/06/02 12:40:52;;;;;;;1.88;1.77;;;;;;;;;;5005898;28;20061;-74
2022/06/02 12:43:38;;;;;;;3.15;1.83;;;;;;;;;;5013803;28;20061;-74
2022/06/02 12:46:23;;;;;;;2.00;1.80;;;;;;;;;;5012157;28;20093;-74
2022/06/02 12:49:01;;;;;;;2.20;2.00;;;;;;;;;;5013473;28;20247;-75
2022/06/02 12:51:38;;;;;;;1.70;1.60;;;;;;;;;;5007581;28;20066;-75
2022/06/02 12:54:04;;;;;;;2.05;1.70;;;;;;;;;;5019194;28;20034;-75
2022/06/02 12:56:39;;;;;;;2.25;2.05;;;;;;;;;;5004256;28;20083;-75
2022/06/02 12:59:14;;;;;;;1.80;1.70;;;;;;;;;;5010563;28;20289;-74
2022/06/02 13:01:46;;;;;;;2.00;1.70;;;;;;;;;;5000282;28;20127;-74
2022/06/02 13:04:19;;;;;;;2.15;1.95;;;;;;;;;;5013233;28;20037;-75
2022/06/02 13:06:46;;;;;;;3.90;1.90;;;;;;;;;;5012597;28;20026;-76
2022/06/02 13:09:12;;;;;;;3.15;1.80;;;;;;;;;;5017031;28;20026;-75
2022/06/02 13:11:56;;;;;;;4.53;2.03;;;;;;;;;;5011855;28;20033;-76
2022/06/02 13:14:22;;;;;;;2.10;1.90;;;;;;;;;;5016802;28;20033;-76
2022/06/02 13:17:08;;;;;;;2.17;1.70;;;;;;;;;;5015845;28;20046;-76
2022/06/02 13:19:53;;;;;;;2.00;1.80;;;;;;;;;;5018617;28;20094;-74
2022/06/02 13:22:22;;;;;;;3.05;1.70;;;;;;;;;;5023153;28;20076;-74
2022/06/02 13:24:51;;;;;;;2.63;2.15;;;;;;;;;;5024451;28;20488;-75
2022/06/02 13:27:23;;;;;;;1.98;1.80;;;;;;;;;;5019156;28;20084;-76
2022/06/02 13:29:56;;;;;;;1.70;1.60;;;;;;;;;;5019569;28;20033;-76
2022/06/02 13:32:34;;;;;;;5.57;1.90;;;;;;;;;;5008221;28;20037;-74
2022/06/02 13:35:16;;;;;;;2.53;1.98;;;;;;;;;;5014198;28;20022;-75
2022/06/02 13:37:45;;;;;;;2.17;1.98;;;;;;;;;;5011388;28;20478;-74
2022/06/02 13:40:26;;;;;;;2.00;1.80;;;;;;;;;;5008411;28;20042;-74
2022/06/02 13:42:58;;;;;;;2.10;1.90;;;;;;;;;;5019157;28;20037;-75
2022/06/02 13:45:28;;;;;;;3.08;1.98;;;;;;;;;;5007987;28;20042;-75
2022/06/02 13:48:21;;;;;;;2.20;2.00;;;;;;;;;;5003877;28;20129;-75
2022/06/02 13:51:05;;;;;;;2.55;1.83;;;;;;;;;;5013921;28;20042;-77
2022/06/02 13:53:32;;;;;;;2.22;1.80;;;;;;;;;;5014320;28;20025;-76
2022/06/02 13:59:00;;;;;;;2.03;1.83;;;;;;;;;;5002346;28;20801;-77
2022/06/02 14:01:39;;;;;;;2.10;1.80;;;;;;;;;;5009020;28;20033;-76
2022/06/02 14:04:08;;;;;;;2.53;1.90;;;;;;;;;;5012585;28;20424;-75
2022/06/02 14:06:39;;;;;;;2.05;1.85;;;;;;;;;;5016278;28;20042;-76
2022/06/02 14:09:17;;;;;;;2.10;1.85;;;;;;;;;;5020750;28;20050;-76
2022/06/02 14:11:43;;;;;;;1.85;1.70;;;;;;;;;;5018207;28;20056;-73
2022/06/02 14:14:23;;;;;;;1.73;1.60;;;;;;;;;;5021071;28;20072;-76
2022/06/02 14:17:01;;;;;;;2.00;1.80;;;;;;;;;;5006105;28;20037;-74
2022/06/02 14:19:30;;;;;;;1.73;1.63;;;;;;;;;;5020847;28;20040;-74
2022/06/02 14:22:06;;;;;;;3.20;1.70;;;;;;;;;;5017966;28;20021;-76
2022/06/02 14:24:31;;;;;;;;;;;;;;;;;;5014286;28;20026;-75
2022/06/02 14:26:58;;;;;;;1.70;1.60;;;;;;;;;;5023722;28;19924;-74
2022/06/02 14:29:37;;;;;;;4.38;1.90;;;;;;;;;;5011499;28;20022;-73
2022/06/02 14:32:09;;;;;;;2.55;2.00;;;;;;;;;;5026675;28;20052;-72
2022/06/02 14:34:36;;;;;;;2.55;2.35;;;;;;;;;;5007432;28;20029;-73
2022/06/02 14:37:07;;;;;;;3.28;2.35;;;;;;;;;;5009768;28;20053;-73
2022/06/02 14:39:56;;;;;;;3.10;2.53;;;;;;;;;;5020246;28;20112;-74
2022/06/02 14:43:03;;;;;;;2.90;2.60;;;;;;;;;;5013782;28;20049;-74
2022/06/02 14:45:17;;;;;;;4.22;2.83;;;;;;;;;;5019815;28;20457;-75
2022/06/02 14:48:06;;;;;;;3.78;3.20;;;;;;;;;;5017296;28;20040;-75
2022/06/02 14:50:44;;;;;;;3.38;3.05;;;;;;;;;;4987892;28;20147;-76
2022/06/02 14:53:10;;;;;;;4.38;3.00;;;;;;;;;;5010130;28;20048;-74
2022/06/02 14:55:42;;;;;;;3.95;2.70;;;;;;;;;;5020446;28;20033;-75
2022/06/02 14:58:21;;;;;;;3.13;2.83;;;;;;;;;;5014908;28;20533;-76
2022/06/02 15:00:49;;;;;;;3.28;2.78;;;;;;;;;;5016402;28;20029;-76
2022/06/02 15:03:15;;;;;;;3.28;2.80;;;;;;;;;;5014588;28;20037;-74
2022/06/02 15:05:48;;;;;;;3.30;3.00;;;;;;;;;;5012006;28;20033;-74
2022/06/02 15:08:37;;;;;;;3.40;3.05;;;;;;;;;;5022773;28;20044;-75
2022/06/02 15:11:03;;;;;;;3.85;2.90;;;;;;;;;;5021392;28;20429;-74
2022/06/02 15:13:54;;;;;;;4.28;3.03;;;;;;;;;;5007254;28;20052;-75
2022/06/02 15:16:35;;;;;;;7.63;3.00;;;;;;;;;;5010218;28;20024;-75
2022/06/02 15:19:26;;;;;;;4.15;2.70;;;;;;;;;;5014485;28;20022;-75
2022/06/02 15:21:56;;;;;;;3.47;3.17;;;;;;;;;;5019718;28;20348;-75
2022/06/02 15:24:42;;;;;;;4.57;2.80;;;;;;;;;;5012023;28;20026;-76
2022/06/02 15:27:14;;;;;;;3.20;2.72;;;;;;;;;;4992693;28;20042;-75
2022/06/02 15:29:49;;;;;;;3.40;3.10;;;;;;;;;;5018939;28;20037;-74
2022/06/02 15:32:34;;;;;;;3.17;2.83;;;;;;;;;;5006732;28;20396;-75
2022/06/02 15:35:00;;;;;;;4.57;3.28;;;;;;;;;;5010290;28;20022;-75
2022/06/02 15:37:32;;;;;;;3.80;3.17;;;;;;;;;;5009593;28;20100;-75
2022/06/02 15:40:17;;;;;;;3.70;3.20;;;;;;;;;;5015643;28;20037;-75
2022/06/02 15:42:58;;;;;;;3.13;2.67;;;;;;;;;;5014953;28;20403;-75
2022/06/02 15:45:55;;;;;;;2.90;2.65;;;;;;;;;;5015176;28;20029;-76
2022/06/02 15:48:40;;;;;;;2.20;2.00;;;;;;;;;;5021918;28;20108;-76